sensor_id;sensor_type;location;lat;lon;timestamp;P1;durP1;ratioP1;P2;durP2;ratioP2
42478;SDS011;28110;47.080;9.476;2024-01-10T00:01:32;36.95;;;16.15;;
42478;SDS011;28110;47.080;9.476;2024-01-10T00:03:58;35.25;;;14.60;;
42478;SDS011;28110;47.080;9.476;2024-01-10T00:06:23;36.87;;;15.17;;
42478;SDS011;28110;47.080;9.476;2024-01-10T00:08:49;36.30;;;15.23;;
42478;SDS011;28110;47.080;9.476;2024-01-10T00:11:15;37.53;;;14.97;;
42478;SDS011;28110;47.080;9.476;2024-01-10T00:13:41;38.20;;;16.30;;
42478;SDS011;28110;47.080;9.476;2024-01-10T00:16:06;39.40;;;16.57;;
42478;SDS011;28110;47.080;9.476;2024-01-10T00:18:32;40.22;;;15.85;;
42478;SDS011;28110;47.080;9.476;2024-01-10T00:20:58;38.07;;;16.33;;
42478;SDS011;28110;47.080;9.476;2024-01-10T00:23:24;36.65;;;15.98;;
42478;SDS011;28110;47.080;9.476;2024-01-10T00:25:49;35.37;;;15.40;;
42478;SDS011;28110;47.080;9.476;2024-01-10T00:28:15;36.10;;;14.90;;
42478;SDS011;28110;47.080;9.476;2024-01-10T00:30:44;38.67;;;15.53;;
42478;SDS011;28110;47.080;9.476;2024-01-10T00:33:12;41.00;;;15.93;;
42478;SDS011;28110;47.080;9.476;2024-01-10T00:35:38;40.65;;;17.33;;
42478;SDS011;28110;47.080;9.476;2024-01-10T00:38:03;40.13;;;15.85;;
42478;SDS011;28110;47.080;9.476;2024-01-10T00:40:29;36.60;;;15.87;;
42478;SDS011;28110;47.080;9.476;2024-01-10T00:42:54;40.60;;;16.93;;
42478;SDS011;28110;47.080;9.476;2024-01-10T00:45:20;36.28;;;15.40;;
42478;SDS011;28110;47.080;9.476;2024-01-10T00:47:46;42.20;;;16.40;;
42478;SDS011;28110;47.080;9.476;2024-01-10T00:50:13;38.55;;;15.50;;
42478;SDS011;28110;47.080;9.476;2024-01-10T00:52:38;37.70;;;15.87;;
42478;SDS011;28110;47.080;9.476;2024-01-10T00:55:04;35.72;;;15.60;;
42478;SDS011;28110;47.080;9.476;2024-01-10T00:57:30;40.67;;;16.67;;
42478;SDS011;28110;47.080;9.476;2024-01-10T00:59:55;37.75;;;16.13;;
42478;SDS011;28110;47.080;9.476;2024-01-10T01:02:21;38.63;;;15.50;;
42478;SDS011;28110;47.080;9.476;2024-01-10T01:04:46;41.37;;;16.83;;
42478;SDS011;28110;47.080;9.476;2024-01-10T01:07:12;40.00;;;16.60;;
42478;SDS011;28110;47.080;9.476;2024-01-10T01:09:37;38.72;;;17.00;;
42478;SDS011;28110;47.080;9.476;2024-01-10T01:12:03;37.93;;;15.80;;
42478;SDS011;28110;47.080;9.476;2024-01-10T01:14:29;39.38;;;16.45;;
42478;SDS011;28110;47.080;9.476;2024-01-10T01:16:54;35.67;;;15.80;;
42478;SDS011;28110;47.080;9.476;2024-01-10T01:19:20;37.17;;;15.93;;
42478;SDS011;28110;47.080;9.476;2024-01-10T01:21:45;43.95;;;17.40;;
42478;SDS011;28110;47.080;9.476;2024-01-10T01:24:11;36.73;;;15.27;;
42478;SDS011;28110;47.080;9.476;2024-01-10T01:26:36;38.10;;;15.97;;
42478;SDS011;28110;47.080;9.476;2024-01-10T01:29:02;41.28;;;16.50;;
42478;SDS011;28110;47.080;9.476;2024-01-10T01:31:27;37.43;;;16.17;;
42478;SDS011;28110;47.080;9.476;2024-01-10T01:33:53;38.97;;;15.80;;
42478;SDS011;28110;47.080;9.476;2024-01-10T01:36:18;39.70;;;15.70;;
42478;SDS011;28110;47.080;9.476;2024-01-10T01:38:44;40.47;;;16.08;;
42478;SDS011;28110;47.080;9.476;2024-01-10T01:41:10;36.07;;;15.27;;
42478;SDS011;28110;47.080;9.476;2024-01-10T01:43:35;38.78;;;15.98;;
42478;SDS011;28110;47.080;9.476;2024-01-10T01:46:01;39.03;;;16.07;;
42478;SDS011;28110;47.080;9.476;2024-01-10T01:48:28;41.60;;;15.07;;
42478;SDS011;28110;47.080;9.476;2024-01-10T01:50:56;42.35;;;16.00;;
42478;SDS011;28110;47.080;9.476;2024-01-10T01:53:24;40.63;;;15.40;;
42478;SDS011;28110;47.080;9.476;2024-01-10T01:55:51;38.00;;;15.73;;
42478;SDS011;28110;47.080;9.476;2024-01-10T01:58:17;40.67;;;16.88;;
42478;SDS011;28110;47.080;9.476;2024-01-10T02:00:43;37.75;;;15.20;;
42478;SDS011;28110;47.080;9.476;2024-01-10T02:03:09;38.17;;;15.35;;
42478;SDS011;28110;47.080;9.476;2024-01-10T02:05:35;41.10;;;17.57;;
42478;SDS011;28110;47.080;9.476;2024-01-10T02:08:02;40.17;;;15.93;;
42478;SDS011;28110;47.080;9.476;2024-01-10T02:10:27;43.80;;;17.77;;
42478;SDS011;28110;47.080;9.476;2024-01-10T02:12:53;37.17;;;15.57;;
42478;SDS011;28110;47.080;9.476;2024-01-10T02:15:19;40.83;;;16.42;;
42478;SDS011;28110;47.080;9.476;2024-01-10T02:17:44;42.37;;;17.37;;
42478;SDS011;28110;47.080;9.476;2024-01-10T02:20:14;39.92;;;17.08;;
42478;SDS011;28110;47.080;9.476;2024-01-10T02:22:43;42.00;;;17.07;;
42478;SDS011;28110;47.080;9.476;2024-01-10T02:25:09;43.28;;;17.38;;
42478;SDS011;28110;47.080;9.476;2024-01-10T02:27:36;39.50;;;16.58;;
42478;SDS011;28110;47.080;9.476;2024-01-10T02:30:03;36.88;;;14.98;;
42478;SDS011;28110;47.080;9.476;2024-01-10T02:32:30;41.10;;;15.88;;
42478;SDS011;28110;47.080;9.476;2024-01-10T02:34:56;37.27;;;15.47;;
42478;SDS011;28110;47.080;9.476;2024-01-10T02:37:22;36.83;;;15.88;;
42478;SDS011;28110;47.080;9.476;2024-01-10T02:39:48;42.75;;;18.02;;
42478;SDS011;28110;47.080;9.476;2024-01-10T02:42:13;43.00;;;15.77;;
42478;SDS011;28110;47.080;9.476;2024-01-10T02:44:39;42.80;;;17.40;;
42478;SDS011;28110;47.080;9.476;2024-01-10T02:47:05;39.85;;;17.35;;
42478;SDS011;28110;47.080;9.476;2024-01-10T02:49:33;44.63;;;16.40;;
42478;SDS011;28110;47.080;9.476;2024-01-10T02:51:59;39.72;;;17.20;;
42478;SDS011;28110;47.080;9.476;2024-01-10T02:54:24;39.63;;;16.65;;
42478;SDS011;28110;47.080;9.476;2024-01-10T02:56:50;42.67;;;16.47;;
42478;SDS011;28110;47.080;9.476;2024-01-10T02:59:16;36.72;;;16.38;;
42478;SDS011;28110;47.080;9.476;2024-01-10T03:01:41;45.30;;;16.50;;
42478;SDS011;28110;47.080;9.476;2024-01-10T03:04:07;43.38;;;16.63;;
42478;SDS011;28110;47.080;9.476;2024-01-10T03:06:32;42.80;;;16.57;;
42478;SDS011;28110;47.080;9.476;2024-01-10T03:08:58;38.20;;;16.23;;
42478;SDS011;28110;47.080;9.476;2024-01-10T03:11:23;38.60;;;15.38;;
42478;SDS011;28110;47.080;9.476;2024-01-10T03:14:00;42.72;;;16.58;;
42478;SDS011;28110;47.080;9.476;2024-01-10T03:16:32;38.40;;;15.18;;
42478;SDS011;28110;47.080;9.476;2024-01-10T03:18:58;34.53;;;15.70;;
42478;SDS011;28110;47.080;9.476;2024-01-10T03:21:24;35.08;;;14.90;;
42478;SDS011;28110;47.080;9.476;2024-01-10T03:23:51;37.53;;;15.50;;
42478;SDS011;28110;47.080;9.476;2024-01-10T03:26:20;39.55;;;16.50;;
42478;SDS011;28110;47.080;9.476;2024-01-10T03:28:46;37.67;;;15.63;;
42478;SDS011;28110;47.080;9.476;2024-01-10T03:31:11;33.67;;;14.67;;
42478;SDS011;28110;47.080;9.476;2024-01-10T03:33:37;41.03;;;15.55;;
42478;SDS011;28110;47.080;9.476;2024-01-10T03:36:02;41.93;;;17.03;;
42478;SDS011;28110;47.080;9.476;2024-01-10T03:38:28;36.88;;;15.45;;
42478;SDS011;28110;47.080;9.476;2024-01-10T03:40:54;36.37;;;14.70;;
42478;SDS011;28110;47.080;9.476;2024-01-10T03:43:19;43.23;;;16.57;;
42478;SDS011;28110;47.080;9.476;2024-01-10T03:45:45;34.88;;;15.25;;
42478;SDS011;28110;47.080;9.476;2024-01-10T03:48:10;34.20;;;15.00;;
42478;SDS011;28110;47.080;9.476;2024-01-10T03:50:36;36.30;;;14.40;;
42478;SDS011;28110;47.080;9.476;2024-01-10T03:53:01;40.53;;;15.77;;
42478;SDS011;28110;47.080;9.476;2024-01-10T03:55:27;37.50;;;15.10;;
42478;SDS011;28110;47.080;9.476;2024-01-10T03:57:53;34.10;;;14.27;;
42478;SDS011;28110;47.080;9.476;2024-01-10T04:00:18;40.78;;;16.42;;
42478;SDS011;28110;47.080;9.476;2024-01-10T04:02:44;36.20;;;14.80;;
42478;SDS011;28110;47.080;9.476;2024-01-10T04:05:09;38.25;;;14.98;;
42478;SDS011;28110;47.080;9.476;2024-01-10T04:07:37;40.33;;;15.90;;
42478;SDS011;28110;47.080;9.476;2024-01-10T04:10:04;40.50;;;16.38;;
42478;SDS011;28110;47.080;9.476;2024-01-10T04:12:32;39.55;;;15.88;;
42478;SDS011;28110;47.080;9.476;2024-01-10T04:14:58;38.70;;;15.57;;
42478;SDS011;28110;47.080;9.476;2024-01-10T04:17:23;41.20;;;16.83;;
42478;SDS011;28110;47.080;9.476;2024-01-10T04:19:49;38.77;;;15.00;;
42478;SDS011;28110;47.080;9.476;2024-01-10T04:22:14;41.63;;;15.70;;
42478;SDS011;28110;47.080;9.476;2024-01-10T04:24:40;36.42;;;14.88;;
42478;SDS011;28110;47.080;9.476;2024-01-10T04:27:05;41.20;;;16.45;;
42478;SDS011;28110;47.080;9.476;2024-01-10T04:29:31;34.90;;;14.47;;
42478;SDS011;28110;47.080;9.476;2024-01-10T04:31:56;41.77;;;16.27;;
42478;SDS011;28110;47.080;9.476;2024-01-10T04:34:22;37.40;;;15.00;;
42478;SDS011;28110;47.080;9.476;2024-01-10T04:36:48;34.37;;;14.43;;
42478;SDS011;28110;47.080;9.476;2024-01-10T04:39:14;39.20;;;16.27;;
42478;SDS011;28110;47.080;9.476;2024-01-10T04:41:39;32.83;;;13.77;;
42478;SDS011;28110;47.080;9.476;2024-01-10T04:44:05;38.60;;;15.38;;
42478;SDS011;28110;47.080;9.476;2024-01-10T04:46:30;42.78;;;16.15;;
42478;SDS011;28110;47.080;9.476;2024-01-10T04:48:56;41.37;;;14.97;;
42478;SDS011;28110;47.080;9.476;2024-01-10T04:51:21;39.23;;;15.63;;
42478;SDS011;28110;47.080;9.476;2024-01-10T04:53:47;40.03;;;15.57;;
42478;SDS011;28110;47.080;9.476;2024-01-10T04:56:12;36.03;;;15.57;;
42478;SDS011;28110;47.080;9.476;2024-01-10T04:58:38;39.80;;;14.97;;
42478;SDS011;28110;47.080;9.476;2024-01-10T05:01:04;40.17;;;16.00;;
42478;SDS011;28110;47.080;9.476;2024-01-10T05:03:29;39.97;;;15.60;;
42478;SDS011;28110;47.080;9.476;2024-01-10T05:05:55;37.17;;;14.70;;
42478;SDS011;28110;47.080;9.476;2024-01-10T05:08:20;41.57;;;15.87;;
42478;SDS011;28110;47.080;9.476;2024-01-10T05:10:46;35.07;;;15.53;;
42478;SDS011;28110;47.080;9.476;2024-01-10T05:13:12;42.80;;;15.85;;
42478;SDS011;28110;47.080;9.476;2024-01-10T05:15:37;40.03;;;15.43;;
42478;SDS011;28110;47.080;9.476;2024-01-10T05:18:03;36.88;;;15.45;;
42478;SDS011;28110;47.080;9.476;2024-01-10T05:20:29;38.70;;;15.40;;
42478;SDS011;28110;47.080;9.476;2024-01-10T05:22:54;41.53;;;15.52;;
42478;SDS011;28110;47.080;9.476;2024-01-10T05:25:23;43.83;;;16.03;;
42478;SDS011;28110;47.080;9.476;2024-01-10T05:27:49;38.45;;;16.60;;
42478;SDS011;28110;47.080;9.476;2024-01-10T05:30:15;41.08;;;17.27;;
42478;SDS011;28110;47.080;9.476;2024-01-10T05:32:40;41.63;;;15.18;;
42478;SDS011;28110;47.080;9.476;2024-01-10T05:35:07;43.05;;;15.05;;
42478;SDS011;28110;47.080;9.476;2024-01-10T05:37:32;38.97;;;16.40;;
42478;SDS011;28110;47.080;9.476;2024-01-10T05:39:58;42.17;;;15.52;;
42478;SDS011;28110;47.080;9.476;2024-01-10T05:42:23;44.93;;;17.03;;
42478;SDS011;28110;47.080;9.476;2024-01-10T05:44:49;37.73;;;15.90;;
42478;SDS011;28110;47.080;9.476;2024-01-10T05:47:15;35.35;;;15.35;;
42478;SDS011;28110;47.080;9.476;2024-01-10T05:49:41;42.40;;;16.43;;
42478;SDS011;28110;47.080;9.476;2024-01-10T05:52:07;35.95;;;15.05;;
42478;SDS011;28110;47.080;9.476;2024-01-10T05:54:33;37.05;;;13.98;;
42478;SDS011;28110;47.080;9.476;2024-01-10T05:56:58;38.50;;;16.37;;
42478;SDS011;28110;47.080;9.476;2024-01-10T05:59:25;36.60;;;15.27;;
42478;SDS011;28110;47.080;9.476;2024-01-10T06:01:51;36.60;;;14.70;;
42478;SDS011;28110;47.080;9.476;2024-01-10T06:04:17;40.72;;;16.15;;
42478;SDS011;28110;47.080;9.476;2024-01-10T06:06:42;41.17;;;15.90;;
42478;SDS011;28110;47.080;9.476;2024-01-10T06:09:10;37.33;;;15.40;;
42478;SDS011;28110;47.080;9.476;2024-01-10T06:11:40;41.63;;;15.55;;
42478;SDS011;28110;47.080;9.476;2024-01-10T06:14:08;36.85;;;14.68;;
42478;SDS011;28110;47.080;9.476;2024-01-10T06:16:34;35.83;;;16.30;;
42478;SDS011;28110;47.080;9.476;2024-01-10T06:19:00;44.55;;;16.48;;
42478;SDS011;28110;47.080;9.476;2024-01-10T06:21:25;40.90;;;16.37;;
42478;SDS011;28110;47.080;9.476;2024-01-10T06:23:51;39.67;;;16.37;;
42478;SDS011;28110;47.080;9.476;2024-01-10T06:26:17;37.20;;;15.30;;
42478;SDS011;28110;47.080;9.476;2024-01-10T06:28:42;37.27;;;15.70;;
42478;SDS011;28110;47.080;9.476;2024-01-10T06:31:08;38.23;;;16.00;;
42478;SDS011;28110;47.080;9.476;2024-01-10T06:33:33;36.03;;;15.53;;
42478;SDS011;28110;47.080;9.476;2024-01-10T06:35:59;38.00;;;15.13;;
42478;SDS011;28110;47.080;9.476;2024-01-10T06:38:24;35.33;;;14.93;;
42478;SDS011;28110;47.080;9.476;2024-01-10T06:40:50;32.83;;;14.57;;
42478;SDS011;28110;47.080;9.476;2024-01-10T06:43:15;31.85;;;14.20;;
42478;SDS011;28110;47.080;9.476;2024-01-10T06:45:41;40.10;;;15.47;;
42478;SDS011;28110;47.080;9.476;2024-01-10T06:48:07;39.08;;;15.55;;
42478;SDS011;28110;47.080;9.476;2024-01-10T06:50:33;39.00;;;15.57;;
42478;SDS011;28110;47.080;9.476;2024-01-10T06:52:59;41.67;;;16.53;;
42478;SDS011;28110;47.080;9.476;2024-01-10T06:55:24;34.50;;;15.63;;
42478;SDS011;28110;47.080;9.476;2024-01-10T06:57:51;40.33;;;16.47;;
42478;SDS011;28110;47.080;9.476;2024-01-10T07:00:18;41.88;;;15.98;;
42478;SDS011;28110;47.080;9.476;2024-01-10T07:02:46;39.42;;;15.63;;
42478;SDS011;28110;47.080;9.476;2024-01-10T07:05:11;43.03;;;16.40;;
42478;SDS011;28110;47.080;9.476;2024-01-10T07:07:37;34.45;;;14.75;;
42478;SDS011;28110;47.080;9.476;2024-01-10T07:10:03;38.60;;;16.53;;
42478;SDS011;28110;47.080;9.476;2024-01-10T07:12:30;38.35;;;17.63;;
42478;SDS011;28110;47.080;9.476;2024-01-10T07:14:56;36.17;;;15.98;;
42478;SDS011;28110;47.080;9.476;2024-01-10T07:17:22;52.83;;;20.97;;
42478;SDS011;28110;47.080;9.476;2024-01-10T07:19:48;82.95;;;26.63;;
42478;SDS011;28110;47.080;9.476;2024-01-10T07:22:13;83.63;;;27.03;;
42478;SDS011;28110;47.080;9.476;2024-01-10T07:24:39;78.25;;;26.88;;
42478;SDS011;28110;47.080;9.476;2024-01-10T07:27:05;71.40;;;23.03;;
42478;SDS011;28110;47.080;9.476;2024-01-10T07:29:31;56.35;;;21.95;;
42478;SDS011;28110;47.080;9.476;2024-01-10T07:31:57;52.53;;;21.23;;
42478;SDS011;28110;47.080;9.476;2024-01-10T07:34:22;47.50;;;19.73;;
42478;SDS011;28110;47.080;9.476;2024-01-10T07:36:48;45.28;;;18.40;;
42478;SDS011;28110;47.080;9.476;2024-01-10T07:39:14;69.30;;;27.47;;
42478;SDS011;28110;47.080;9.476;2024-01-10T07:41:45;52.95;;;20.25;;
42478;SDS011;28110;47.080;9.476;2024-01-10T07:44:11;68.70;;;23.97;;
42478;SDS011;28110;47.080;9.476;2024-01-10T07:46:37;81.20;;;26.33;;
42478;SDS011;28110;47.080;9.476;2024-01-10T07:49:03;74.32;;;23.65;;
42478;SDS011;28110;47.080;9.476;2024-01-10T07:51:29;92.73;;;28.10;;
42478;SDS011;28110;47.080;9.476;2024-01-10T07:53:55;81.22;;;26.70;;
42478;SDS011;28110;47.080;9.476;2024-01-10T07:56:21;79.25;;;27.05;;
42478;SDS011;28110;47.080;9.476;2024-01-10T07:58:47;86.80;;;26.33;;
42478;SDS011;28110;47.080;9.476;2024-01-10T08:01:14;91.95;;;30.75;;
42478;SDS011;28110;47.080;9.476;2024-01-10T08:03:40;96.75;;;32.63;;
42478;SDS011;28110;47.080;9.476;2024-01-10T08:06:05;99.10;;;30.60;;
42478;SDS011;28110;47.080;9.476;2024-01-10T08:08:31;94.43;;;29.60;;
42478;SDS011;28110;47.080;9.476;2024-01-10T08:10:57;51.30;;;20.20;;
42478;SDS011;28110;47.080;9.476;2024-01-10T08:13:22;53.27;;;20.23;;
42478;SDS011;28110;47.080;9.476;2024-01-10T08:15:48;49.83;;;21.03;;
42478;SDS011;28110;47.080;9.476;2024-01-10T08:18:13;59.38;;;22.05;;
42478;SDS011;28110;47.080;9.476;2024-01-10T08:20:39;53.97;;;19.30;;
42478;SDS011;28110;47.080;9.476;2024-01-10T08:23:05;48.88;;;20.15;;
42478;SDS011;28110;47.080;9.476;2024-01-10T08:25:30;44.67;;;18.70;;
42478;SDS011;28110;47.080;9.476;2024-01-10T08:27:56;49.70;;;19.33;;
42478;SDS011;28110;47.080;9.476;2024-01-10T08:30:22;51.00;;;18.92;;
42478;SDS011;28110;47.080;9.476;2024-01-10T08:32:48;42.55;;;17.95;;
42478;SDS011;28110;47.080;9.476;2024-01-10T08:35:14;50.37;;;19.60;;
42478;SDS011;28110;47.080;9.476;2024-01-10T08:37:40;46.65;;;21.13;;
42478;SDS011;28110;47.080;9.476;2024-01-10T08:40:08;56.22;;;23.67;;
42478;SDS011;28110;47.080;9.476;2024-01-10T08:42:37;63.67;;;24.05;;
42478;SDS011;28110;47.080;9.476;2024-01-10T08:45:03;60.25;;;21.75;;
42478;SDS011;28110;47.080;9.476;2024-01-10T08:47:29;57.63;;;24.57;;
42478;SDS011;28110;47.080;9.476;2024-01-10T08:49:57;55.10;;;22.75;;
42478;SDS011;28110;47.080;9.476;2024-01-10T08:52:23;47.45;;;18.25;;
42478;SDS011;28110;47.080;9.476;2024-01-10T08:54:49;44.83;;;17.53;;
42478;SDS011;28110;47.080;9.476;2024-01-10T08:57:14;45.85;;;18.60;;
42478;SDS011;28110;47.080;9.476;2024-01-10T08:59:43;40.43;;;17.43;;
42478;SDS011;28110;47.080;9.476;2024-01-10T09:02:09;45.53;;;17.83;;
42478;SDS011;28110;47.080;9.476;2024-01-10T09:04:34;45.27;;;18.47;;
42478;SDS011;28110;47.080;9.476;2024-01-10T09:07:00;44.63;;;17.07;;
42478;SDS011;28110;47.080;9.476;2024-01-10T09:09:25;45.92;;;17.67;;
42478;SDS011;28110;47.080;9.476;2024-01-10T09:11:51;49.27;;;18.07;;
42478;SDS011;28110;47.080;9.476;2024-01-10T09:14:16;47.03;;;19.17;;
42478;SDS011;28110;47.080;9.476;2024-01-10T09:16:42;45.97;;;18.20;;
42478;SDS011;28110;47.080;9.476;2024-01-10T09:19:07;47.23;;;19.53;;
42478;SDS011;28110;47.080;9.476;2024-01-10T09:21:34;47.85;;;19.80;;
42478;SDS011;28110;47.080;9.476;2024-01-10T09:24:00;43.53;;;17.60;;
42478;SDS011;28110;47.080;9.476;2024-01-10T09:26:25;49.80;;;20.90;;
42478;SDS011;28110;47.080;9.476;2024-01-10T09:28:51;45.05;;;17.90;;
42478;SDS011;28110;47.080;9.476;2024-01-10T09:31:16;50.90;;;19.63;;
42478;SDS011;28110;47.080;9.476;2024-01-10T09:33:42;45.83;;;19.70;;
42478;SDS011;28110;47.080;9.476;2024-01-10T09:36:08;47.47;;;18.95;;
42478;SDS011;28110;47.080;9.476;2024-01-10T09:38:36;46.27;;;19.20;;
42478;SDS011;28110;47.080;9.476;2024-01-10T09:41:02;49.55;;;20.13;;
42478;SDS011;28110;47.080;9.476;2024-01-10T09:43:32;49.67;;;19.63;;
42478;SDS011;28110;47.080;9.476;2024-01-10T09:46:01;47.67;;;20.52;;
42478;SDS011;28110;47.080;9.476;2024-01-10T09:48:27;49.38;;;20.20;;
42478;SDS011;28110;47.080;9.476;2024-01-10T09:50:54;51.47;;;20.63;;
42478;SDS011;28110;47.080;9.476;2024-01-10T09:53:24;53.53;;;20.15;;
42478;SDS011;28110;47.080;9.476;2024-01-10T09:55:55;48.83;;;20.75;;
42478;SDS011;28110;47.080;9.476;2024-01-10T09:58:22;48.88;;;21.23;;
42478;SDS011;28110;47.080;9.476;2024-01-10T10:00:50;49.33;;;21.05;;
42478;SDS011;28110;47.080;9.476;2024-01-10T10:03:16;51.77;;;20.60;;
42478;SDS011;28110;47.080;9.476;2024-01-10T10:05:43;50.03;;;20.55;;
42478;SDS011;28110;47.080;9.476;2024-01-10T10:08:10;45.83;;;20.00;;
42478;SDS011;28110;47.080;9.476;2024-01-10T10:10:37;51.33;;;19.77;;
42478;SDS011;28110;47.080;9.476;2024-01-10T10:13:08;44.03;;;19.33;;
42478;SDS011;28110;47.080;9.476;2024-01-10T10:15:35;48.00;;;19.10;;
42478;SDS011;28110;47.080;9.476;2024-01-10T10:18:01;48.70;;;19.58;;
42478;SDS011;28110;47.080;9.476;2024-01-10T10:20:27;49.33;;;20.55;;
42478;SDS011;28110;47.080;9.476;2024-01-10T10:23:07;43.50;;;19.10;;
42478;SDS011;28110;47.080;9.476;2024-01-10T10:25:38;45.55;;;19.10;;
42478;SDS011;28110;47.080;9.476;2024-01-10T10:28:08;52.00;;;20.90;;
42478;SDS011;28110;47.080;9.476;2024-01-10T10:30:34;50.23;;;20.40;;
42478;SDS011;28110;47.080;9.476;2024-01-10T10:33:01;47.55;;;19.48;;
42478;SDS011;28110;47.080;9.476;2024-01-10T10:35:27;49.40;;;19.92;;
42478;SDS011;28110;47.080;9.476;2024-01-10T10:37:53;51.47;;;20.97;;
42478;SDS011;28110;47.080;9.476;2024-01-10T10:40:19;47.08;;;20.55;;
42478;SDS011;28110;47.080;9.476;2024-01-10T10:42:46;48.25;;;19.92;;
42478;SDS011;28110;47.080;9.476;2024-01-10T10:45:16;43.63;;;19.37;;
42478;SDS011;28110;47.080;9.476;2024-01-10T10:47:43;50.58;;;21.33;;
42478;SDS011;28110;47.080;9.476;2024-01-10T10:50:12;47.63;;;20.55;;
42478;SDS011;28110;47.080;9.476;2024-01-10T10:52:42;47.95;;;20.52;;
42478;SDS011;28110;47.080;9.476;2024-01-10T10:55:12;49.72;;;21.00;;
42478;SDS011;28110;47.080;9.476;2024-01-10T10:57:40;49.23;;;21.07;;
42478;SDS011;28110;47.080;9.476;2024-01-10T11:00:12;49.88;;;19.15;;
42478;SDS011;28110;47.080;9.476;2024-01-10T11:02:40;51.95;;;21.73;;
42478;SDS011;28110;47.080;9.476;2024-01-10T11:05:06;49.78;;;19.85;;
42478;SDS011;28110;47.080;9.476;2024-01-10T11:07:37;50.13;;;20.83;;
42478;SDS011;28110;47.080;9.476;2024-01-10T11:10:06;49.10;;;21.05;;
42478;SDS011;28110;47.080;9.476;2024-01-10T11:15:31;50.47;;;22.17;;
42478;SDS011;28110;47.080;9.476;2024-01-10T11:18:50;49.13;;;22.10;;
42478;SDS011;28110;47.080;9.476;2024-01-10T11:21:17;49.43;;;20.03;;
42478;SDS011;28110;47.080;9.476;2024-01-10T11:24:03;51.08;;;20.60;;
42478;SDS011;28110;47.080;9.476;2024-01-10T11:26:29;51.33;;;20.80;;
42478;SDS011;28110;47.080;9.476;2024-01-10T11:28:58;51.45;;;21.58;;
42478;SDS011;28110;47.080;9.476;2024-01-10T11:31:28;51.90;;;20.92;;
42478;SDS011;28110;47.080;9.476;2024-01-10T11:33:58;54.97;;;21.13;;
42478;SDS011;28110;47.080;9.476;2024-01-10T11:36:25;55.08;;;20.77;;
42478;SDS011;28110;47.080;9.476;2024-01-10T11:41:24;47.97;;;21.13;;
42478;SDS011;28110;47.080;9.476;2024-01-10T11:46:42;44.87;;;19.27;;
42478;SDS011;28110;47.080;9.476;2024-01-10T11:49:11;49.83;;;20.95;;
42478;SDS011;28110;47.080;9.476;2024-01-10T11:51:41;54.15;;;20.67;;
42478;SDS011;28110;47.080;9.476;2024-01-10T11:54:07;49.95;;;20.17;;
42478;SDS011;28110;47.080;9.476;2024-01-10T11:56:42;47.13;;;19.37;;
42478;SDS011;28110;47.080;9.476;2024-01-10T11:59:10;53.00;;;21.55;;
42478;SDS011;28110;47.080;9.476;2024-01-10T12:01:38;49.13;;;20.33;;
42478;SDS011;28110;47.080;9.476;2024-01-10T12:04:04;47.95;;;20.52;;
42478;SDS011;28110;47.080;9.476;2024-01-10T12:06:31;52.90;;;20.90;;
42478;SDS011;28110;47.080;9.476;2024-01-10T12:08:57;48.00;;;20.88;;
42478;SDS011;28110;47.080;9.476;2024-01-10T12:11:24;47.15;;;20.08;;
42478;SDS011;28110;47.080;9.476;2024-01-10T12:13:50;51.10;;;20.92;;
42478;SDS011;28110;47.080;9.476;2024-01-10T12:16:16;51.10;;;19.50;;
42478;SDS011;28110;47.080;9.476;2024-01-10T12:18:42;47.80;;;20.05;;
42478;SDS011;28110;47.080;9.476;2024-01-10T12:21:08;46.53;;;19.73;;
42478;SDS011;28110;47.080;9.476;2024-01-10T12:23:38;50.15;;;21.27;;
42478;SDS011;28110;47.080;9.476;2024-01-10T12:26:04;45.17;;;18.70;;
42478;SDS011;28110;47.080;9.476;2024-01-10T12:28:34;45.33;;;19.37;;
42478;SDS011;28110;47.080;9.476;2024-01-10T12:31:06;50.25;;;20.77;;
42478;SDS011;28110;47.080;9.476;2024-01-10T12:33:37;46.13;;;19.17;;
42478;SDS011;28110;47.080;9.476;2024-01-10T12:36:08;48.17;;;20.67;;
42478;SDS011;28110;47.080;9.476;2024-01-10T12:38:40;47.20;;;19.98;;
42478;SDS011;28110;47.080;9.476;2024-01-10T12:41:06;45.73;;;20.37;;
42478;SDS011;28110;47.080;9.476;2024-01-10T12:43:34;47.92;;;20.10;;
42478;SDS011;28110;47.080;9.476;2024-01-10T12:46:06;47.80;;;20.83;;
42478;SDS011;28110;47.080;9.476;2024-01-10T12:48:33;43.45;;;18.63;;
42478;SDS011;28110;47.080;9.476;2024-01-10T12:51:01;50.65;;;20.52;;
42478;SDS011;28110;47.080;9.476;2024-01-10T12:53:30;44.13;;;19.00;;
42478;SDS011;28110;47.080;9.476;2024-01-10T12:56:00;54.97;;;21.08;;
42478;SDS011;28110;47.080;9.476;2024-01-10T12:58:25;41.78;;;18.98;;
42478;SDS011;28110;47.080;9.476;2024-01-10T13:00:52;49.20;;;20.57;;
42478;SDS011;28110;47.080;9.476;2024-01-10T13:03:17;45.88;;;19.25;;
42478;SDS011;28110;47.080;9.476;2024-01-10T13:05:43;47.37;;;19.03;;
42478;SDS011;28110;47.080;9.476;2024-01-10T13:08:09;50.35;;;20.17;;
42478;SDS011;28110;47.080;9.476;2024-01-10T13:10:36;48.22;;;19.17;;
42478;SDS011;28110;47.080;9.476;2024-01-10T13:13:02;44.67;;;18.87;;
42478;SDS011;28110;47.080;9.476;2024-01-10T13:15:28;49.42;;;20.35;;
42478;SDS011;28110;47.080;9.476;2024-01-10T13:17:54;48.77;;;19.67;;
42478;SDS011;28110;47.080;9.476;2024-01-10T13:20:19;44.97;;;19.55;;
42478;SDS011;28110;47.080;9.476;2024-01-10T13:22:45;52.80;;;20.07;;
42478;SDS011;28110;47.080;9.476;2024-01-10T13:25:10;44.42;;;19.25;;
42478;SDS011;28110;47.080;9.476;2024-01-10T13:27:36;45.72;;;18.77;;
42478;SDS011;28110;47.080;9.476;2024-01-10T13:30:02;41.80;;;18.77;;
42478;SDS011;28110;47.080;9.476;2024-01-10T13:32:29;45.40;;;18.92;;
42478;SDS011;28110;47.080;9.476;2024-01-10T13:34:54;44.23;;;17.83;;
42478;SDS011;28110;47.080;9.476;2024-01-10T13:37:20;48.05;;;19.55;;
42478;SDS011;28110;47.080;9.476;2024-01-10T13:39:46;39.63;;;18.27;;
42478;SDS011;28110;47.080;9.476;2024-01-10T13:42:11;44.58;;;19.08;;
42478;SDS011;28110;47.080;9.476;2024-01-10T13:44:37;44.10;;;19.33;;
42478;SDS011;28110;47.080;9.476;2024-01-10T13:47:03;43.17;;;19.05;;
42478;SDS011;28110;47.080;9.476;2024-01-10T13:49:29;48.30;;;20.57;;
42478;SDS011;28110;47.080;9.476;2024-01-10T13:51:55;48.93;;;19.60;;
42478;SDS011;28110;47.080;9.476;2024-01-10T13:54:20;44.33;;;19.13;;
42478;SDS011;28110;47.080;9.476;2024-01-10T13:56:46;44.72;;;18.77;;
42478;SDS011;28110;47.080;9.476;2024-01-10T13:59:12;43.87;;;19.53;;
42478;SDS011;28110;47.080;9.476;2024-01-10T14:01:38;45.78;;;19.17;;
42478;SDS011;28110;47.080;9.476;2024-01-10T14:04:04;40.67;;;18.83;;
42478;SDS011;28110;47.080;9.476;2024-01-10T14:06:30;43.20;;;19.15;;
42478;SDS011;28110;47.080;9.476;2024-01-10T14:08:56;44.23;;;18.40;;
42478;SDS011;28110;47.080;9.476;2024-01-10T14:11:22;39.47;;;18.70;;
42478;SDS011;28110;47.080;9.476;2024-01-10T14:13:49;43.88;;;18.40;;
42478;SDS011;28110;47.080;9.476;2024-01-10T14:16:14;44.13;;;18.60;;
42478;SDS011;28110;47.080;9.476;2024-01-10T14:18:40;45.60;;;19.13;;
42478;SDS011;28110;47.080;9.476;2024-01-10T14:21:05;47.23;;;18.60;;
42478;SDS011;28110;47.080;9.476;2024-01-10T14:23:32;43.40;;;18.65;;
42478;SDS011;28110;47.080;9.476;2024-01-10T14:25:59;44.67;;;19.00;;